createdAt,value
2022-08-22T00:00:24.598Z,101707.41
2022-08-22T00:02:47.779Z,101661.09
2022-08-22T00:03:00.025Z,101680.19
2022-08-22T00:03:16.174Z,101721.09
2022-08-22T00:06:03.686Z,101697.56
2022-08-22T00:08:55.592Z,101704.78
2022-08-22T00:11:50.802Z,101698.72
2022-08-22T00:14:38.613Z,101689.72
2022-08-22T00:17:35.300Z,101698.59
2022-08-22T00:20:10.420Z,101690.66
2022-08-22T00:22:39.883Z,101700.34
2022-08-22T00:25:37.716Z,101696.72
2022-08-22T00:28:16.888Z,101698.72
2022-08-22T00:30:59.313Z,101702.19
2022-08-22T00:33:48.701Z,101702.56
2022-08-22T00:36:22.992Z,101705.06
2022-08-22T00:39:14.499Z,101695.25
2022-08-22T00:41:59.717Z,101698.84
2022-08-22T00:44:59.587Z,101704.31
2022-08-22T00:47:38.115Z,101704.31
2022-08-22T00:50:33.491Z,101698.88
2022-08-22T00:53:36.884Z,101705.28
2022-08-22T00:56:12.522Z,101702.66
2022-08-22T00:58:57.496Z,101701.59
2022-08-22T01:01:33.647Z,101707.13
2022-08-22T01:04:18.166Z,101709.00
2022-08-22T01:07:01.274Z,101708.25
2022-08-22T01:09:41.242Z,101704.50
2022-08-22T01:12:16.031Z,101702.81
2022-08-22T01:15:05.677Z,101709.00
2022-08-22T01:17:51.934Z,101706.28
2022-08-22T01:20:50.327Z,101710.91
2022-08-22T01:23:47.306Z,101710.06
2022-08-22T01:26:32.589Z,101705.63
2022-08-22T01:29:30.268Z,101709.00
2022-08-22T01:32:11.741Z,101708.31
2022-08-22T01:34:56.324Z,101708.38
2022-08-22T01:37:44.019Z,101714.53
2022-08-22T01:40:19.545Z,101712.16
2022-08-22T01:43:04.485Z,101722.84
2022-08-22T01:45:41.392Z,101712.09
2022-08-22T01:48:10.528Z,101714.78
2022-08-22T01:50:52.332Z,101717.56
2022-08-22T01:53:37.779Z,101725.69
2022-08-22T01:56:11.201Z,101717.50
2022-08-22T01:58:45.346Z,101726.56
2022-08-22T02:01:20.972Z,101726.47
2022-08-22T02:04:06.107Z,101723.78
2022-08-22T02:06:51.661Z,101724.69
2022-08-22T02:09:42.985Z,101732.09
2022-08-22T02:12:22.276Z,101737.50
2022-08-22T02:15:04.183Z,101731.97
2022-08-22T02:17:51.264Z,101735.00
2022-08-22T02:20:25.085Z,101731.38
2022-08-22T02:22:57.762Z,101728.63
2022-08-22T02:25:28.870Z,101725.91
2022-08-22T02:28:08.088Z,101726.75
2022-08-22T02:30:55.066Z,101723.22
2022-08-22T02:33:43.784Z,101714.28
2022-08-22T02:36:25.189Z,101725.09
2022-08-22T02:39:13.664Z,101720.81
2022-08-22T02:42:11.651Z,101717.13
2022-08-22T02:45:10.465Z,101712.72
2022-08-22T02:47:56.913Z,101711.84
2022-08-22T02:50:43.646Z,101710.78
2022-08-22T02:53:23.910Z,101713.56
2022-08-22T02:55:56.763Z,101714.75
2022-08-22T02:58:45.124Z,101716.59
2022-08-22T03:01:17.259Z,101716.59
2022-08-22T03:03:47.009Z,101717.41
2022-08-22T03:06:41.073Z,101714.84
2022-08-22T03:09:27.363Z,101708.41
2022-08-22T03:12:32.458Z,101707.47
2022-08-22T03:15:24.563Z,101714.75
2022-08-22T03:18:18.912Z,101705.78
2022-08-22T03:20:54.008Z,101702.25
2022-08-22T03:23:26.628Z,101705.78
2022-08-22T03:26:08.816Z,101698.59
2022-08-22T03:28:59.191Z,101709.75
2022-08-22T03:31:27.797Z,101707.84
2022-08-22T03:34:22.396Z,101699.78
2022-08-22T03:37:04.249Z,101702.53
2022-08-22T03:39:57.710Z,101709.72
2022-08-22T03:42:43.086Z,101692.75
2022-08-22T03:45:21.622Z,101702.47
2022-08-22T03:48:15.290Z,101701.53
2022-08-22T03:50:48.140Z,101700.94
2022-08-22T03:53:35.804Z,101690.06
2022-08-22T03:56:25.770Z,101694.59
2022-08-22T03:59:11.683Z,101692.91
2022-08-22T04:01:47.888Z,101700.94
2022-08-22T04:04:36.744Z,101702.91
2022-08-22T04:07:15.792Z,101699.38
2022-08-22T04:10:05.665Z,101691.25
2022-08-22T04:13:09.895Z,101701.13
2022-08-22T04:16:05.939Z,101704.84
2022-08-22T04:18:35.170Z,101711.22
2022-08-22T04:21:26.144Z,101704.84
2022-08-22T04:24:04.961Z,101703.72
2022-08-22T04:26:46.348Z,101706.56
2022-08-22T04:29:19.843Z,101710.41
2022-08-22T04:32:15.080Z,101716.69
2022-08-22T04:35:06.991Z,101722.00
2022-08-22T04:37:56.409Z,101715.72
2022-08-22T04:40:34.397Z,101722.00
2022-08-22T04:43:06.571Z,101716.69
2022-08-22T04:45:39.617Z,101726.78
2022-08-22T04:48:11.064Z,101723.16
2022-08-22T04:50:51.968Z,101727.69
2022-08-22T04:53:48.592Z,101731.50
2022-08-22T04:56:43.960Z,101730.47
2022-08-22T04:59:16.551Z,101733.97
2022-08-22T05:01:47.980Z,101725.25
2022-08-22T05:04:27.554Z,101718.91
2022-08-22T05:06:59.873Z,101729.59
2022-08-22T05:09:31.711Z,101728.56
2022-08-22T05:12:04.979Z,101733.16
2022-08-22T05:14:39.484Z,101729.06
2022-08-22T05:17:11.282Z,101739.88
2022-08-22T05:19:50.632Z,101743.50
2022-08-22T05:22:30.396Z,101743.56
2022-08-22T05:25:03.976Z,101743.63
2022-08-22T05:27:33.978Z,101741.72
2022-08-22T05:30:04.693Z,101743.63
2022-08-22T05:32:48.029Z,101746.28
2022-08-22T05:35:16.588Z,101754.09
2022-08-22T05:37:47.453Z,101748.97
2022-08-22T05:40:26.591Z,101754.38
2022-08-22T05:42:54.429Z,101745.41
2022-08-22T05:45:21.557Z,101747.44
2022-08-22T05:47:52.175Z,101751.69
2022-08-22T05:50:26.840Z,101749.22
2022-08-22T05:52:56.552Z,101753.59
2022-08-22T05:55:57.120Z,101749.38
2022-08-22T05:58:38.702Z,101749.22
2022-08-22T06:01:28.652Z,101748.31
2022-08-22T06:04:05.711Z,101754.78
2022-08-22T06:06:39.137Z,101752.84
2022-08-22T06:09:12.132Z,101758.06
2022-08-22T06:11:52.045Z,101759.78
2022-08-22T06:14:40.685Z,101758.00
2022-08-22T06:17:18.131Z,101768.72
2022-08-22T06:19:50.083Z,101770.59
2022-08-22T06:22:28.180Z,101767.03
2022-08-22T06:24:57.109Z,101768.91
2022-08-22T06:27:27.135Z,101763.41
2022-08-22T06:30:00.883Z,101766.19
2022-08-22T06:32:58.231Z,101768.03
2022-08-22T06:35:25.416Z,101772.53
2022-08-22T06:37:55.901Z,101769.94
2022-08-22T06:40:23.824Z,101775.22
2022-08-22T06:42:51.746Z,101768.81
2022-08-22T06:45:22.449Z,101779.81
2022-08-22T06:47:53.756Z,101776.94
2022-08-22T06:50:40.720Z,101776.78
2022-08-22T06:53:15.952Z,101773.22
2022-08-22T06:55:48.058Z,101779.53
2022-08-22T06:58:22.076Z,101773.69
2022-08-22T07:01:05.688Z,101769.44
2022-08-22T07:03:46.135Z,101769.41
2022-08-22T07:06:18.190Z,101775.84
2022-08-22T07:08:45.340Z,101769.47
2022-08-22T07:11:24.673Z,101773.97
2022-08-22T07:14:05.460Z,101766.75
2022-08-22T07:16:42.067Z,101773.97
2022-08-22T07:19:10.496Z,101766.91
2022-08-22T07:21:47.716Z,101773.16
2022-08-22T07:24:18.754Z,101774.06
2022-08-22T07:27:11.736Z,101774.06
2022-08-22T07:29:50.368Z,101771.00
2022-08-22T07:32:29.241Z,101774.75
2022-08-22T07:35:10.849Z,101770.31
2022-08-22T07:37:46.663Z,101765.75
2022-08-22T07:40:25.694Z,101763.91
2022-08-22T07:42:52.308Z,101768.47
2022-08-22T07:45:37.128Z,101772.84
2022-08-22T07:48:26.210Z,101779.13
2022-08-22T07:51:08.300Z,101779.03
2022-08-22T07:53:40.542Z,101779.13
2022-08-22T07:56:11.693Z,101779.03
2022-08-22T07:58:40.157Z,101773.69
2022-08-22T08:01:09.798Z,101776.34
2022-08-22T08:03:36.735Z,101772.66
2022-08-22T08:06:03.822Z,101772.56
2022-08-22T08:08:34.631Z,101769.97
2022-08-22T08:11:03.610Z,101779.03
2022-08-22T08:13:35.469Z,101778.19
2022-08-22T08:16:05.272Z,101778.19
2022-08-22T08:18:34.446Z,101777.28
2022-08-22T08:21:05.419Z,101772.53
2022-08-22T08:23:40.637Z,101764.41
2022-08-22T08:26:10.804Z,101769.88
2022-08-22T08:28:44.973Z,101776.03
2022-08-22T08:31:14.704Z,101766.97
2022-08-22T08:33:44.245Z,101766.09
2022-08-22T08:36:45.100Z,101775.63
2022-08-22T08:39:35.868Z,101767.50
2022-08-22T08:42:24.380Z,101767.13
2022-08-22T08:45:09.447Z,101768.16
2022-08-22T08:47:41.860Z,101770.69
2022-08-22T08:50:23.830Z,101782.19
2022-08-22T08:52:58.580Z,101768.63
2022-08-22T08:55:31.172Z,101766.75
2022-08-22T08:58:06.840Z,101770.31
2022-08-22T09:00:42.991Z,101775.78
2022-08-22T09:03:30.541Z,101770.50
2022-08-22T09:06:32.696Z,101769.25
2022-08-22T09:09:20.632Z,101772.94
2022-08-22T09:11:53.905Z,101770.31
2022-08-22T09:14:45.229Z,101780.06
2022-08-22T09:17:28.415Z,101775.63
2022-08-22T09:20:22.924Z,101769.19
2022-08-22T09:23:18.883Z,101761.78
2022-08-22T09:26:05.798Z,101771.59
2022-08-22T09:28:48.469Z,101776.13
2022-08-22T09:31:16.910Z,101764.59
2022-08-22T09:34:32.205Z,101767.94
2022-08-22T09:37:04.485Z,101757.06
2022-08-22T09:39:49.474Z,101749.03
2022-08-22T09:42:44.932Z,101751.66
2022-08-22T09:45:11.820Z,101742.81
2022-08-22T09:47:51.227Z,101740.75
2022-08-22T09:50:24.779Z,101735.34
2022-08-22T09:52:59.085Z,101740.56
2022-08-22T09:56:15.356Z,101740.50
2022-08-22T09:59:14.861Z,101727.88
2022-08-22T10:01:44.685Z,101727.75
2022-08-22T10:04:14.286Z,101729.44
2022-08-22T10:07:01.124Z,101719.53
2022-08-22T10:09:56.095Z,101727.56
2022-08-22T10:12:49.136Z,101732.78
2022-08-22T10:15:31.597Z,101731.00
2022-08-22T10:18:28.674Z,101730.88
2022-08-22T10:21:12.237Z,101727.31
2022-08-22T10:23:48.708Z,101724.38
2022-08-22T10:26:38.561Z,101729.03
2022-08-22T10:29:30.251Z,101725.38
2022-08-22T10:32:15.052Z,101720.75
2022-08-22T10:34:46.593Z,101729.03
2022-08-22T10:37:32.918Z,101721.53
2022-08-22T10:40:06.070Z,101724.09
2022-08-22T10:42:38.031Z,101718.81
2022-08-22T10:45:07.579Z,101723.19
2022-08-22T10:47:53.177Z,101727.72
2022-08-22T10:50:31.036Z,101725.03
2022-08-22T10:53:35.271Z,101712.47
2022-08-22T10:56:21.541Z,101717.88
2022-08-22T10:59:03.926Z,101716.09
2022-08-22T11:01:37.477Z,101704.19
2022-08-22T11:04:39.829Z,101708.47
2022-08-22T11:07:50.218Z,101697.53
2022-08-22T11:10:22.929Z,101710.34
2022-08-22T11:13:04.419Z,101715.66
2022-08-22T11:15:52.956Z,101714.56
2022-08-22T11:18:58.017Z,101706.47
2022-08-22T11:21:41.846Z,101710.13
2022-08-22T11:24:34.694Z,101701.50
2022-08-22T11:27:37.966Z,101709.63
2022-08-22T11:30:18.247Z,101700.63
2022-08-22T11:33:13.878Z,101702.31
2022-08-22T11:35:52.517Z,101696.75
2022-08-22T11:38:36.276Z,101693.13
2022-08-22T11:41:09.499Z,101692.25
2022-08-22T11:43:41.356Z,101685.75
2022-08-22T11:46:23.729Z,101684.81
2022-08-22T11:49:26.928Z,101679.16
2022-08-22T11:52:32.134Z,101681.94
2022-08-22T11:55:11.409Z,101674.63
2022-08-22T11:57:47.642Z,101672.72
2022-08-22T12:00:32.481Z,101675.19
2022-08-22T12:03:25.060Z,101668.84
2022-08-22T12:05:56.788Z,101672.28
2022-08-22T12:08:52.068Z,101672.38
2022-08-22T12:11:29.699Z,101667.66
2022-08-22T12:14:13.515Z,101656.78
2022-08-22T12:17:05.784Z,101660.44
2022-08-22T12:19:58.900Z,101660.13
2022-08-22T12:23:06.131Z,101664.47
2022-08-22T12:25:57.580Z,101662.72
2022-08-22T12:28:30.274Z,101654.53
2022-08-22T12:31:27.488Z,101657.31
2022-08-22T12:33:58.779Z,101657.16
2022-08-22T12:36:59.691Z,101651.63
2022-08-22T12:39:50.444Z,101653.75
2022-08-22T12:42:37.168Z,101655.94
2022-08-22T12:45:30.208Z,101640.78
2022-08-22T12:48:15.599Z,101647.97
2022-08-22T12:51:03.526Z,101646.66
2022-08-22T12:54:04.526Z,101637.56
2022-08-22T12:56:47.353Z,101645.78
2022-08-22T12:59:26.195Z,101646.44
2022-08-22T13:01:55.393Z,101644.38
2022-08-22T13:04:32.467Z,101641.13
2022-08-22T13:07:07.323Z,101637.47
2022-08-22T13:09:39.514Z,101642.91
2022-08-22T13:12:20.071Z,101636.16
2022-08-22T13:14:53.257Z,101642.75
2022-08-22T13:17:25.078Z,101642.91
2022-08-22T13:19:55.583Z,101627.03
2022-08-22T13:22:28.995Z,101628.00
2022-08-22T13:25:00.660Z,101631.56
2022-08-22T13:27:50.830Z,101626.81
2022-08-22T13:30:24.351Z,101627.91
2022-08-22T13:32:53.491Z,101629.53
2022-08-22T13:35:24.435Z,101628.00
2022-08-22T13:37:55.870Z,101616.78
2022-08-22T13:40:29.098Z,101613.16
2022-08-22T13:43:22.066Z,101606.53
2022-08-22T13:45:54.281Z,101604.47
2022-08-22T13:48:23.702Z,101604.97
2022-08-22T13:51:04.807Z,101604.00
2022-08-22T13:54:00.378Z,101598.41
2022-08-22T13:56:36.530Z,101598.66
2022-08-22T13:59:05.947Z,101611.47
2022-08-22T14:01:53.324Z,101607.56
2022-08-22T14:04:35.768Z,101602.38
2022-08-22T14:07:03.801Z,101601.84
2022-08-22T14:09:54.683Z,101598.66
2022-08-22T14:12:50.762Z,101595.94
2022-08-22T14:15:45.285Z,101597.72
2022-08-22T14:18:20.625Z,101588.00
2022-08-22T14:21:17.402Z,101603.28
2022-08-22T14:23:44.929Z,101588.88
2022-08-22T14:26:33.106Z,101590.44
2022-08-22T14:29:08.231Z,101590.38
2022-08-22T14:31:35.172Z,101600.75
2022-08-22T14:34:10.368Z,101601.59
2022-08-22T14:36:55.121Z,101595.19
2022-08-22T14:39:49.122Z,101590.50
2022-08-22T14:42:20.053Z,101589.19
2022-08-22T14:45:11.362Z,101595.19
2022-08-22T14:47:55.406Z,101590.06
2022-08-22T14:50:37.291Z,101581.94
2022-08-22T14:53:07.980Z,101584.72
2022-08-22T14:55:35.969Z,101588.38
2022-08-22T14:58:06.499Z,101574.44
2022-08-22T15:00:42.470Z,101580.75
2022-08-22T15:03:20.443Z,101572.97
2022-08-22T15:05:49.975Z,101568.38
2022-08-22T15:08:27.539Z,101565.41
2022-08-22T15:11:14.863Z,101569.72
2022-08-22T15:13:50.763Z,101560.22
2022-08-22T15:16:21.639Z,101563.44
2022-08-22T15:18:52.100Z,101564.78
2022-08-22T15:21:30.796Z,101562.75
2022-08-22T15:24:04.739Z,101562.75
2022-08-22T15:26:34.596Z,101563.69
2022-08-22T15:29:15.215Z,101559.19
2022-08-22T15:31:46.397Z,101554.16
2022-08-22T15:34:30.877Z,101549.25
2022-08-22T15:37:10.981Z,101553.66
2022-08-22T15:40:12.797Z,101552.00
2022-08-22T15:42:46.287Z,101548.25
2022-08-22T15:45:33.969Z,101549.25
2022-08-22T15:48:04.524Z,101538.66
2022-08-22T15:50:35.401Z,101541.53
2022-08-22T15:53:19.055Z,101536.13
2022-08-22T15:56:17.932Z,101531.03
2022-08-22T15:58:48.622Z,101533.97
2022-08-22T16:01:22.573Z,101540.34
2022-08-22T16:04:02.604Z,101536.22
2022-08-22T16:06:49.109Z,101536.53
2022-08-22T16:09:29.082Z,101536.97
2022-08-22T16:11:56.253Z,101539.78
2022-08-22T16:14:35.011Z,101536.13
2022-08-22T16:17:08.147Z,101529.66
2022-08-22T16:19:35.592Z,101531.03
2022-08-22T16:22:05.571Z,101530.44
2022-08-22T16:24:37.074Z,101532.25
2022-08-22T16:27:21.602Z,101532.19
2022-08-22T16:29:48.533Z,101537.88
2022-08-22T16:32:23.545Z,101530.78
2022-08-22T16:34:50.351Z,101530.94
2022-08-22T16:37:47.057Z,101530.28
2022-08-22T16:40:23.377Z,101530.69
2022-08-22T16:43:09.466Z,101527.97
2022-08-22T16:45:48.602Z,101523.34
2022-08-22T16:48:35.680Z,101520.63
2022-08-22T16:51:06.374Z,101518.81
2022-08-22T16:53:35.638Z,101523.41
2022-08-22T16:56:24.595Z,101522.41
2022-08-22T16:59:22.523Z,101524.25
2022-08-22T17:01:55.940Z,101525.13
2022-08-22T17:04:37.983Z,101517.91
2022-08-22T17:07:14.687Z,101521.59
2022-08-22T17:10:04.361Z,101517.69
2022-08-22T17:12:54.640Z,101506.06
2022-08-22T17:15:34.408Z,101510.75
2022-08-22T17:18:12.277Z,101516.03
2022-08-22T17:21:11.514Z,101511.72
2022-08-22T17:24:02.084Z,101517.13
2022-08-22T17:26:48.318Z,101513.50
2022-08-22T17:29:30.124Z,101524.25
2022-08-22T17:32:16.426Z,101519.00
2022-08-22T17:34:56.229Z,101527.25
2022-08-22T17:37:32.358Z,101523.47
2022-08-22T17:40:20.427Z,101521.72
2022-08-22T17:43:12.639Z,101529.03
2022-08-22T17:45:46.114Z,101534.34
2022-08-22T17:48:25.791Z,101527.31
2022-08-22T17:50:57.122Z,101541.66
2022-08-22T17:53:36.479Z,101532.56
2022-08-22T17:56:09.145Z,101538.00
2022-08-22T17:58:45.288Z,101531.75
2022-08-22T18:01:34.505Z,101542.84
2022-08-22T18:04:04.183Z,101543.69
2022-08-22T18:06:34.614Z,101538.34
2022-08-22T18:09:16.568Z,101545.31
2022-08-22T18:11:57.923Z,101548.34
2022-08-22T18:14:40.719Z,101553.53
2022-08-22T18:17:19.506Z,101552.50
2022-08-22T18:19:58.241Z,101549.09
2022-08-22T18:22:24.728Z,101555.78
2022-08-22T18:25:17.172Z,101549.22
2022-08-22T18:27:55.277Z,101553.66
2022-08-22T18:30:24.917Z,101550.88
2022-08-22T18:33:19.319Z,101555.53
2022-08-22T18:35:54.467Z,101558.31
2022-08-22T18:38:31.277Z,101561.97
2022-08-22T18:41:23.099Z,101557.34
2022-08-22T18:43:52.808Z,101550.22
2022-08-22T18:46:29.067Z,101560.19
2022-08-22T18:49:14.578Z,101550.69
2022-08-22T18:51:42.070Z,101561.47
2022-08-22T18:54:08.546Z,101552.75
2022-08-22T18:57:26.470Z,101553.41
2022-08-22T19:00:01.874Z,101558.94
2022-08-22T19:02:37.245Z,101551.75
2022-08-22T19:05:12.041Z,101554.53
2022-08-22T19:08:05.217Z,101559.03
2022-08-22T19:11:25.409Z,101563.38
2022-08-22T19:14:05.662Z,101563.50
2022-08-22T19:17:01.952Z,101564.06
2022-08-22T19:20:16.635Z,101565.03
2022-08-22T19:22:43.936Z,101564.00
2022-08-22T19:25:26.959Z,101563.13
2022-08-22T19:28:11.468Z,101568.53
2022-08-22T19:30:47.459Z,101566.75
2022-08-22T19:33:34.583Z,101573.03
2022-08-22T19:36:29.833Z,101572.09
2022-08-22T19:39:09.575Z,101568.44
2022-08-22T19:41:46.563Z,101574.09
2022-08-22T19:44:19.037Z,101569.72
2022-08-22T19:47:05.112Z,101571.41
2022-08-22T19:49:36.319Z,101572.59
2022-08-22T19:52:17.607Z,101567.59
2022-08-22T19:55:07.291Z,101571.44
2022-08-22T19:57:52.029Z,101572.19
2022-08-22T20:00:41.325Z,101583.25
2022-08-22T20:03:37.497Z,101576.00
2022-08-22T20:06:43.408Z,101581.41
2022-08-22T20:09:44.113Z,101574.34
2022-08-22T20:12:24.660Z,101577.88
2022-08-22T20:14:51.355Z,101582.34
2022-08-22T20:17:23.856Z,101572.44
2022-08-22T20:22:45.715Z,101572.44
2022-08-22T20:25:42.643Z,101570.66
2022-08-22T20:28:32.240Z,101564.44
2022-08-22T20:31:01.320Z,101565.38
2022-08-22T20:33:33.276Z,101569.19
2022-08-22T20:36:02.959Z,101569.38
2022-08-22T20:38:35.907Z,101571.31
2022-08-22T20:41:16.145Z,101572.16
2022-08-22T20:43:55.939Z,101565.88
2022-08-22T20:46:28.673Z,101574.00
2022-08-22T20:48:55.831Z,101562.41
2022-08-22T20:51:25.115Z,101567.66
2022-08-22T20:54:10.284Z,101557.16
2022-08-22T20:56:52.875Z,101566.22
2022-08-22T20:59:41.729Z,101554.53
2022-08-22T21:02:19.111Z,101553.75
2022-08-22T21:05:01.110Z,101559.28
2022-08-22T21:07:37.194Z,101556.69
2022-08-22T21:10:35.996Z,101562.13
2022-08-22T21:13:24.549Z,101558.31
2022-08-22T21:16:02.633Z,101560.09
2022-08-22T21:18:35.098Z,101550.44
2022-08-22T21:21:26.577Z,101555.06
2022-08-22T21:24:01.007Z,101556.69
2022-08-22T21:26:36.487Z,101555.13
2022-08-22T21:29:20.960Z,101549.50
2022-08-22T21:31:53.299Z,101546.88
2022-08-22T21:34:31.868Z,101538.56
2022-08-22T21:37:07.904Z,101537.94
2022-08-22T21:39:36.672Z,101537.16
2022-08-22T21:42:03.175Z,101534.47
2022-08-22T21:44:35.494Z,101539.78
2022-08-22T21:47:30.589Z,101534.22
2022-08-22T21:50:20.821Z,101534.38
2022-08-22T21:52:56.206Z,101539.91
2022-08-22T21:55:34.460Z,101539.09
2022-08-22T21:58:07.184Z,101533.84
2022-08-22T22:00:59.465Z,101540.13
2022-08-22T22:03:37.085Z,101533.06
2022-08-22T22:06:06.225Z,101526.75
2022-08-22T22:08:33.420Z,101529.41
2022-08-22T22:11:02.320Z,101528.59
2022-08-22T22:13:31.591Z,101524.88
2022-08-22T22:15:58.200Z,101525.88
2022-08-22T22:18:27.056Z,101526.56
2022-08-22T22:20:54.863Z,101525.88
2022-08-22T22:23:22.386Z,101531.53
2022-08-22T22:25:49.819Z,101516.91
2022-08-22T22:28:16.304Z,101528.69
2022-08-22T22:30:43.861Z,101522.47
2022-08-22T22:33:10.880Z,101519.84
2022-08-22T22:35:39.422Z,101518.81
2022-08-22T22:38:06.689Z,101515.03
2022-08-22T22:40:33.348Z,101510.94
2022-08-22T22:43:00.009Z,101509.94
2022-08-22T22:45:26.676Z,101510.09
2022-08-22T22:47:53.392Z,101517.13
2022-08-22T22:50:20.063Z,101510.09
2022-08-22T22:52:46.639Z,101509.94
2022-08-22T22:55:13.213Z,101513.72
2022-08-22T22:57:58.452Z,101507.41
2022-08-22T23:00:25.822Z,101512.72
2022-08-22T23:02:58.195Z,101501.09
2022-08-22T23:05:24.747Z,101512.06
2022-08-22T23:07:51.304Z,101515.59
2022-08-22T23:10:21.910Z,101512.03
2022-08-22T23:12:48.934Z,101505.94
2022-08-22T23:15:15.604Z,101514.50
2022-08-22T23:17:42.639Z,101512.06
2022-08-22T23:20:09.510Z,101515.84
2022-08-22T23:22:36.241Z,101512.19
2022-08-22T23:25:02.951Z,101512.25
2022-08-22T23:27:31.375Z,101507.69
2022-08-22T23:29:57.949Z,101506.88
2022-08-22T23:32:24.585Z,101510.41
2022-08-22T23:34:51.300Z,101520.38
2022-08-22T23:37:20.947Z,101516.94
2022-08-22T23:39:48.538Z,101513.25
2022-08-22T23:42:15.898Z,101510.41
2022-08-22T23:44:45.164Z,101514.28
2022-08-22T23:47:13.340Z,101512.41
2022-08-22T23:49:41.110Z,101505.06
2022-08-22T23:52:09.386Z,101510.41
2022-08-22T23:54:36.046Z,101509.78
2022-08-22T23:57:11.876Z,101507.09
2022-08-22T23:59:43.508Z,101507.09
